createdAt,value
2023-12-29T00:19:56.860Z,62.60
2023-12-29T00:41:45.184Z,62.50
2023-12-29T00:56:58.193Z,62.40
2023-12-29T01:00:03.721Z,62.30
2023-12-29T01:06:30.026Z,62.30
2023-12-29T01:10:04.158Z,62.50
2023-12-29T01:13:25.107Z,62.70
2023-12-29T01:27:17.842Z,62.40
2023-12-29T01:30:30.546Z,62.70
2023-12-29T01:33:26.724Z,62.50
2023-12-29T01:53:39.403Z,62.60
2023-12-29T01:57:29.755Z,62.60
2023-12-29T02:01:22.854Z,62.80
2023-12-29T02:11:42.600Z,62.80
2023-12-29T02:15:00.253Z,62.70
2023-12-29T02:18:29.922Z,62.70
2023-12-29T02:21:42.905Z,63.00
2023-12-29T02:53:02.276Z,62.90
2023-12-29T03:12:26.641Z,63.20
2023-12-29T03:16:11.907Z,63.50
2023-12-29T03:19:34.336Z,63.50
2023-12-29T03:27:42.985Z,63.90
2023-12-29T03:54:14.774Z,63.80
2023-12-29T04:08:31.342Z,64.00
2023-12-29T04:11:50.553Z,64.10
2023-12-29T04:19:20.941Z,64.10
2023-12-29T04:22:43.537Z,64.70
2023-12-29T04:30:09.469Z,64.30
2023-12-29T04:44:42.288Z,64.40
2023-12-29T04:48:18.801Z,64.20
2023-12-29T04:56:01.684Z,64.50
2023-12-29T05:03:47.409Z,64.50
2023-12-29T05:19:02.040Z,64.50
2023-12-29T05:22:19.150Z,64.40
2023-12-29T05:29:44.484Z,64.30
2023-12-29T05:33:09.539Z,65.00
2023-12-29T05:44:34.030Z,64.40
2023-12-29T06:31:10.268Z,64.60
2023-12-29T06:34:43.719Z,64.80
2023-12-29T06:56:30.138Z,64.70
2023-12-29T06:59:14.395Z,64.90
2023-12-29T07:01:44.425Z,65.10
2023-12-29T07:04:14.840Z,65.40
2023-12-29T07:06:43.762Z,65.20
2023-12-29T07:09:14.003Z,65.20
2023-12-29T07:11:50.812Z,65.30
2023-12-29T07:14:26.005Z,65.20
2023-12-29T07:16:57.880Z,65.40
2023-12-29T07:47:24.563Z,65.30
2023-12-29T07:49:52.055Z,65.50
2023-12-29T07:52:33.920Z,65.40
2023-12-29T07:55:25.990Z,65.40
2023-12-29T07:58:21.663Z,65.60
2023-12-29T08:01:07.983Z,65.60
2023-12-29T08:08:10.469Z,65.90
2023-12-29T08:10:50.532Z,65.60
2023-12-29T08:13:57.709Z,65.60
2023-12-29T08:19:31.928Z,65.70
2023-12-29T08:22:22.021Z,65.90
2023-12-29T08:24:48.928Z,65.70
2023-12-29T08:27:26.969Z,65.60
2023-12-29T08:29:54.946Z,65.80
2023-12-29T08:32:22.819Z,65.80
2023-12-29T08:34:50.053Z,65.80
2023-12-29T08:37:21.064Z,65.90
2023-12-29T08:39:51.018Z,65.90
2023-12-29T08:42:17.859Z,65.90
2023-12-29T08:44:44.715Z,65.90
2023-12-29T08:47:11.657Z,65.90
2023-12-29T08:49:43.016Z,66.00
2023-12-29T08:52:12.654Z,66.10
2023-12-29T08:54:50.980Z,66.00
2023-12-29T08:57:23.618Z,66.30
2023-12-29T08:59:55.429Z,66.00
2023-12-29T09:02:24.842Z,65.40
2023-12-29T09:04:57.699Z,66.00
2023-12-29T09:07:29.299Z,65.90
2023-12-29T09:09:56.402Z,65.70
2023-12-29T09:12:23.545Z,66.50
2023-12-29T09:14:50.672Z,65.70
2023-12-29T09:17:19.017Z,65.70
2023-12-29T09:20:00.128Z,66.00
2023-12-29T09:22:36.055Z,65.70
2023-12-29T09:25:16.372Z,65.80
2023-12-29T09:28:10.450Z,65.70
2023-12-29T09:30:52.599Z,65.60
2023-12-29T09:33:26.093Z,65.60
2023-12-29T09:35:56.245Z,65.50
2023-12-29T09:38:28.735Z,65.30
2023-12-29T09:41:06.663Z,65.90
2023-12-29T09:43:38.284Z,65.70
2023-12-29T09:46:08.852Z,65.50
2023-12-29T09:48:43.385Z,65.60
2023-12-29T09:51:22.775Z,65.70
2023-12-29T09:53:53.567Z,65.40
2023-12-29T09:56:28.558Z,65.80
2023-12-29T09:59:12.098Z,65.90
2023-12-29T10:01:44.096Z,65.70
2023-12-29T10:04:19.304Z,65.60
2023-12-29T10:06:53.136Z,65.60
2023-12-29T10:09:38.394Z,65.70
2023-12-29T10:12:12.493Z,65.60
2023-12-29T10:15:01.089Z,65.80
2023-12-29T10:17:52.940Z,65.70
2023-12-29T10:21:03.238Z,65.50
2023-12-29T10:24:22.120Z,65.50
2023-12-29T10:26:58.424Z,65.50
2023-12-29T10:29:43.033Z,65.70
2023-12-29T10:32:27.059Z,65.40
2023-12-29T10:35:14.336Z,65.40
2023-12-29T10:37:57.723Z,65.50
2023-12-29T10:40:39.432Z,65.40
2023-12-29T10:43:31.049Z,65.30
2023-12-29T10:46:39.851Z,65.30
2023-12-29T10:49:27.175Z,65.30
2023-12-29T10:52:02.871Z,65.40
2023-12-29T10:54:40.564Z,65.30
2023-12-29T10:57:15.256Z,65.50
2023-12-29T11:00:01.374Z,65.50
2023-12-29T11:02:34.588Z,65.30
2023-12-29T11:05:17.188Z,65.50
2023-12-29T11:07:52.555Z,65.20
2023-12-29T11:10:41.666Z,65.30
2023-12-29T11:13:15.095Z,65.60
2023-12-29T11:15:55.246Z,65.70
2023-12-29T11:18:36.758Z,66.00
2023-12-29T11:21:47.596Z,65.60
2023-12-29T11:24:31.512Z,65.30
2023-12-29T11:27:17.579Z,65.10
2023-12-29T11:29:46.434Z,65.10
2023-12-29T11:32:27.647Z,65.30
2023-12-29T11:35:21.058Z,65.30
2023-12-29T11:38:28.142Z,65.20
2023-12-29T11:41:56.324Z,65.10
2023-12-29T11:44:39.975Z,65.10
2023-12-29T11:48:10.456Z,65.00
2023-12-29T11:50:57.618Z,65.10
2023-12-29T11:53:54.925Z,64.90
2023-12-29T11:56:39.991Z,65.20
2023-12-29T11:59:29.141Z,64.80
2023-12-29T12:02:15.403Z,64.70
2023-12-29T12:04:52.025Z,64.90
2023-12-29T12:07:45.411Z,64.60
2023-12-29T12:10:43.411Z,64.40
2023-12-29T12:13:20.882Z,64.40
2023-12-29T12:16:00.581Z,64.60
2023-12-29T12:18:39.037Z,64.30
2023-12-29T12:21:27.443Z,64.00
2023-12-29T12:24:41.441Z,64.20
2023-12-29T12:27:33.699Z,64.10
2023-12-29T12:30:15.540Z,64.10
2023-12-29T12:33:05.386Z,63.90
2023-12-29T12:35:42.393Z,64.10
2023-12-29T12:38:30.665Z,63.70
2023-12-29T12:41:33.712Z,62.90
2023-12-29T12:44:24.776Z,62.70
2023-12-29T12:50:05.290Z,62.90
2023-12-29T12:52:45.719Z,62.30
2023-12-29T12:55:47.945Z,61.50
2023-12-29T12:58:34.841Z,62.00
2023-12-29T13:01:20.487Z,61.30
2023-12-29T13:04:06.634Z,61.10
2023-12-29T13:07:06.083Z,61.20
2023-12-29T13:09:59.465Z,61.10
2023-12-29T13:13:02.182Z,61.60
2023-12-29T13:15:54.940Z,61.20
2023-12-29T13:22:09.189Z,60.70
2023-12-29T13:25:11.039Z,59.80
2023-12-29T13:28:02.586Z,59.80
2023-12-29T13:30:44.828Z,59.60
2023-12-29T13:33:47.690Z,59.70
2023-12-29T13:37:23.074Z,59.20
2023-12-29T13:40:43.931Z,59.20
2023-12-29T13:43:48.079Z,59.50
2023-12-29T13:46:40.379Z,59.90
2023-12-29T13:49:26.372Z,60.40
2023-12-29T13:52:05.992Z,60.40
2023-12-29T13:54:52.984Z,60.50
2023-12-29T13:57:26.319Z,60.20
2023-12-29T14:00:23.496Z,60.50
2023-12-29T14:03:17.814Z,60.00
2023-12-29T14:06:17.096Z,59.80
2023-12-29T14:08:52.753Z,60.00
2023-12-29T14:11:26.056Z,60.40
2023-12-29T14:13:58.618Z,60.30
2023-12-29T14:16:45.094Z,60.00
2023-12-29T14:19:23.334Z,60.00
2023-12-29T14:22:04.156Z,59.70
2023-12-29T14:24:42.745Z,59.90
2023-12-29T14:27:29.857Z,60.00
2023-12-29T14:30:21.046Z,59.80
2023-12-29T14:33:04.313Z,59.80
2023-12-29T14:35:59.104Z,59.80
2023-12-29T14:38:38.858Z,59.90
2023-12-29T14:41:22.769Z,59.50
2023-12-29T14:46:54.285Z,60.00
2023-12-29T14:49:45.340Z,59.80
2023-12-29T14:52:41.179Z,59.60
2023-12-29T14:55:27.500Z,59.80
2023-12-29T14:58:15.652Z,59.30
2023-12-29T15:00:50.017Z,59.10
2023-12-29T15:04:02.719Z,59.20
2023-12-29T15:06:36.172Z,58.80
2023-12-29T15:09:15.987Z,59.40
2023-12-29T15:12:09.279Z,59.30
2023-12-29T15:14:56.288Z,59.30
2023-12-29T15:17:39.203Z,59.30
2023-12-29T15:20:12.480Z,59.50
2023-12-29T15:23:06.376Z,59.30
2023-12-29T15:25:39.641Z,59.20
2023-12-29T15:28:09.510Z,59.50
2023-12-29T15:30:36.844Z,59.60
2023-12-29T15:33:16.752Z,59.50
2023-12-29T15:35:50.726Z,59.60
2023-12-29T15:38:33.236Z,59.50
2023-12-29T15:41:13.624Z,59.50
2023-12-29T15:43:59.224Z,59.40
2023-12-29T15:46:41.906Z,59.40
2023-12-29T15:49:17.686Z,59.30
2023-12-29T15:51:50.186Z,59.40
2023-12-29T15:54:28.613Z,59.40
2023-12-29T15:56:57.294Z,59.50
2023-12-29T15:59:37.653Z,59.40
2023-12-29T16:02:13.808Z,59.30
2023-12-29T16:04:57.695Z,59.40
2023-12-29T16:07:37.777Z,59.20
2023-12-29T16:10:10.302Z,59.40
2023-12-29T16:12:42.538Z,59.40
2023-12-29T16:15:20.373Z,59.60
2023-12-29T16:17:49.751Z,59.40
2023-12-29T16:20:17.471Z,59.50
2023-12-29T16:22:44.566Z,59.60
2023-12-29T16:25:17.151Z,59.80
2023-12-29T16:27:52.636Z,59.70
2023-12-29T16:30:19.672Z,59.80
2023-12-29T16:32:46.869Z,59.80
2023-12-29T16:35:14.007Z,59.40
2023-12-29T16:37:43.485Z,59.80
2023-12-29T16:40:17.606Z,59.80
2023-12-29T16:42:46.849Z,59.80
2023-12-29T16:45:14.288Z,59.70
2023-12-29T16:47:41.334Z,59.80
2023-12-29T16:50:09.143Z,59.90
2023-12-29T16:52:36.176Z,60.20
2023-12-29T16:57:43.906Z,60.40
2023-12-29T17:00:14.738Z,60.40
2023-12-29T17:02:41.814Z,60.50
2023-12-29T17:05:38.592Z,60.60
2023-12-29T17:08:27.017Z,60.60
2023-12-29T17:10:54.111Z,60.60
2023-12-29T17:13:33.829Z,61.00
2023-12-29T17:16:05.113Z,60.70
2023-12-29T17:18:45.745Z,60.70
2023-12-29T17:21:20.881Z,60.80
2023-12-29T17:26:37.216Z,60.90
2023-12-29T17:29:17.460Z,61.00
2023-12-29T17:31:55.876Z,61.20
2023-12-29T17:34:37.035Z,61.20
2023-12-29T17:37:18.932Z,61.50
2023-12-29T17:39:48.710Z,61.50
2023-12-29T17:42:26.225Z,61.50
2023-12-29T17:45:01.414Z,61.90
2023-12-29T17:47:40.337Z,61.80
2023-12-29T17:50:09.044Z,61.60
2023-12-29T17:52:48.079Z,61.60
2023-12-29T17:55:25.368Z,62.00
2023-12-29T17:58:02.665Z,61.70
2023-12-29T18:00:39.988Z,61.80
2023-12-29T18:03:19.040Z,61.60
2023-12-29T18:05:46.435Z,61.60
2023-12-29T18:08:18.953Z,61.70
2023-12-29T18:10:47.973Z,61.50
2023-12-29T18:13:28.759Z,61.50
2023-12-29T18:16:02.974Z,61.90
2023-12-29T18:18:41.605Z,61.60
2023-12-29T18:21:17.355Z,61.60
2023-12-29T18:23:57.875Z,61.60
2023-12-29T18:26:42.220Z,61.60
2023-12-29T18:29:17.171Z,61.40
2023-12-29T18:31:47.092Z,61.60
2023-12-29T18:34:51.602Z,61.60
2023-12-29T18:37:21.315Z,61.90
2023-12-29T18:40:01.345Z,61.80
2023-12-29T18:42:33.255Z,61.90
2023-12-29T18:45:34.438Z,61.60
2023-12-29T18:48:14.173Z,61.70
2023-12-29T18:50:41.671Z,61.60
2023-12-29T18:53:36.147Z,61.50
2023-12-29T18:56:17.195Z,61.90
2023-12-29T18:58:49.410Z,62.00
2023-12-29T19:01:19.022Z,61.90
2023-12-29T19:04:15.435Z,61.80
2023-12-29T19:06:52.155Z,62.00
2023-12-29T19:09:19.619Z,61.90
2023-12-29T19:12:02.855Z,61.80
2023-12-29T19:14:38.409Z,62.00
2023-12-29T19:17:56.130Z,61.90
2023-12-29T19:20:43.261Z,62.00
2023-12-29T19:23:18.251Z,62.00
2023-12-29T19:26:04.449Z,61.90
2023-12-29T19:28:39.780Z,61.90
2023-12-29T19:31:20.324Z,61.80
2023-12-29T19:34:04.665Z,61.90
2023-12-29T19:36:44.774Z,62.30
2023-12-29T19:39:27.476Z,62.20
2023-12-29T19:42:02.141Z,62.20
2023-12-29T19:44:48.882Z,62.00
2023-12-29T19:50:24.065Z,62.20
2023-12-29T19:53:01.378Z,62.20
2023-12-29T19:55:55.770Z,62.10
2023-12-29T19:58:45.129Z,62.20
2023-12-29T20:01:28.474Z,62.10
2023-12-29T20:04:21.413Z,62.20
2023-12-29T20:07:00.727Z,62.10
2023-12-29T20:09:55.840Z,62.10
2023-12-29T20:12:33.769Z,62.20
2023-12-29T20:15:07.996Z,62.20
2023-12-29T20:17:43.619Z,62.30
2023-12-29T20:20:28.859Z,62.20
2023-12-29T20:23:35.846Z,62.20
2023-12-29T20:26:57.213Z,62.40
2023-12-29T20:29:31.510Z,62.40
2023-12-29T20:32:11.468Z,62.20
2023-12-29T20:35:31.634Z,62.50
2023-12-29T20:38:16.974Z,62.60
2023-12-29T20:41:09.681Z,62.60
2023-12-29T20:44:00.190Z,62.90
2023-12-29T20:46:40.632Z,62.70
2023-12-29T20:49:25.836Z,62.70
2023-12-29T20:52:14.013Z,62.90
2023-12-29T20:54:53.650Z,63.10
2023-12-29T20:57:41.625Z,63.00
2023-12-29T21:00:24.062Z,63.00
2023-12-29T21:06:32.134Z,63.30
2023-12-29T21:09:39.546Z,63.70
2023-12-29T21:15:17.425Z,63.20
2023-12-29T21:17:49.262Z,63.30
2023-12-29T21:20:21.162Z,63.30
2023-12-29T21:23:04.085Z,63.20
2023-12-29T21:25:41.976Z,63.50
2023-12-29T21:28:33.180Z,63.40
2023-12-29T21:31:08.417Z,63.60
2023-12-29T21:33:47.920Z,63.60
2023-12-29T21:36:37.943Z,63.50
2023-12-29T21:39:18.373Z,63.80
2023-12-29T21:41:50.921Z,63.90
2023-12-29T21:44:22.712Z,64.00
2023-12-29T21:47:38.451Z,64.00
2023-12-29T21:50:23.097Z,64.10
2023-12-29T21:53:02.561Z,63.80
2023-12-29T21:55:37.994Z,63.70
2023-12-29T21:58:16.500Z,63.60
2023-12-29T22:00:51.058Z,63.80
2023-12-29T22:03:23.261Z,63.70
2023-12-29T22:06:10.050Z,64.00
2023-12-29T22:08:44.978Z,63.80
2023-12-29T22:11:36.324Z,63.80
2023-12-29T22:14:32.124Z,64.00
2023-12-29T22:17:07.822Z,64.10
2023-12-29T22:19:44.360Z,63.90
2023-12-29T22:22:27.074Z,64.00
2023-12-29T22:24:58.808Z,64.20
2023-12-29T22:27:36.247Z,64.40
2023-12-29T22:30:14.848Z,64.70
2023-12-29T22:32:47.158Z,64.40
2023-12-29T22:35:19.939Z,64.70
2023-12-29T22:38:04.782Z,64.70
2023-12-29T22:40:35.190Z,65.10
2023-12-29T22:43:15.781Z,64.70
2023-12-29T22:45:55.038Z,64.90
2023-12-29T22:48:24.683Z,64.70
2023-12-29T22:51:09.398Z,64.90
2023-12-29T22:53:44.140Z,64.60
2023-12-29T22:56:26.634Z,64.70
2023-12-29T22:58:55.817Z,65.00
2023-12-29T23:01:31.437Z,64.70
2023-12-29T23:04:13.736Z,65.00
2023-12-29T23:06:48.639Z,64.90
2023-12-29T23:09:25.217Z,64.60
2023-12-29T23:12:08.729Z,64.80
2023-12-29T23:14:37.546Z,64.70
2023-12-29T23:17:18.698Z,64.60
2023-12-29T23:19:50.739Z,64.70
2023-12-29T23:22:41.844Z,64.70
2023-12-29T23:25:36.059Z,64.60
2023-12-29T23:28:04.751Z,64.60
2023-12-29T23:30:34.845Z,64.60
2023-12-29T23:33:10.292Z,64.60
2023-12-29T23:35:58.686Z,64.50
2023-12-29T23:38:28.346Z,64.70
2023-12-29T23:41:07.483Z,64.70
2023-12-29T23:43:51.870Z,64.70
2023-12-29T23:46:25.496Z,64.80
2023-12-29T23:49:01.724Z,64.60
2023-12-29T23:51:39.324Z,64.50
2023-12-29T23:54:08.928Z,64.50
2023-12-29T23:56:36.269Z,64.50
